createdAt,value
2019-05-17T09:13:00.032Z,23.2536
2019-05-17T09:13:12.415Z,23.2536
2019-05-17T09:13:22.883Z,23.3097
2019-05-17T09:13:31.284Z,23.3391
2019-05-17T09:13:40.084Z,23.3684
2019-05-17T09:13:58.317Z,23.6088
2019-05-17T09:14:10.468Z,23.5500
2019-05-17T09:14:21.359Z,23.4379
2019-05-17T09:14:29.918Z,24.0173
2019-05-17T09:14:40.091Z,23.9479
2019-05-17T09:14:49.612Z,24.0921
2019-05-17T09:15:00.258Z,25.7076
2019-05-17T09:15:10.074Z,27.1229
2019-05-17T09:15:20.329Z,28.0575
2019-05-17T09:15:29.670Z,28.9921
2019-05-17T09:15:39.941Z,29.5903
2019-05-17T09:15:49.440Z,30.2285
2019-05-17T09:16:00.146Z,30.8373
2019-05-17T09:16:10.690Z,31.3474
2019-05-17T09:16:19.712Z,31.8734
2019-05-17T09:16:30.574Z,32.1965
2019-05-17T09:16:40.087Z,32.8241
2019-05-17T09:16:50.441Z,33.1205
2019-05-17T09:17:00.430Z,33.6305
2019-05-17T09:17:10.281Z,34.0284
2019-05-17T09:17:19.403Z,34.2847
2019-05-17T09:17:29.913Z,34.6960
2019-05-17T09:17:39.597Z,35.2514
2019-05-17T09:17:49.855Z,35.4356
2019-05-17T09:18:00.281Z,35.6226
2019-05-17T09:18:09.913Z,35.5932
2019-05-17T09:18:20.656Z,36.2448
2019-05-17T09:18:30.163Z,36.3169
2019-05-17T09:18:39.448Z,36.4023
2019-05-17T09:18:50.031Z,36.3462
2019-05-17T09:19:00.565Z,36.3302
2019-05-17T09:19:10.100Z,36.2902
2019-05-17T09:19:19.416Z,36.5011
2019-05-17T09:19:29.897Z,36.3302
2019-05-17T09:19:39.474Z,36.3890
2019-05-17T09:19:50.507Z,36.5278
2019-05-17T09:20:00.722Z,35.6359
2019-05-17T09:20:10.697Z,34.5705
2019-05-17T09:20:20.396Z,33.9296
2019-05-17T09:20:29.631Z,32.7092
2019-05-17T09:20:40.241Z,31.8868
2019-05-17T09:20:49.498Z,31.5049
2019-05-17T09:21:00.068Z,31.3607
2019-05-17T09:21:09.697Z,31.4595
2019-05-17T09:21:18.256Z,31.5743
2019-05-17T09:21:26.680Z,31.3874
2019-05-17T09:21:35.087Z,31.2192
2019-05-17T09:21:43.503Z,31.0483
2019-05-17T09:21:51.918Z,30.7225
2019-05-17T09:22:00.327Z,30.4955
2019-05-17T09:22:10.536Z,30.2285
2019-05-17T09:22:19.806Z,29.7025
2019-05-17T09:22:30.419Z,29.4461
2019-05-17T09:22:39.589Z,28.9094
2019-05-17T09:22:48.303Z,28.4688
2019-05-17T09:22:56.715Z,28.3566
2019-05-17T09:23:05.144Z,28.3139
2019-05-17T09:23:13.558Z,28.2284
2019-05-17T09:23:21.960Z,28.0735
2019-05-17T09:23:30.673Z,27.8038
2019-05-17T09:23:39.692Z,27.6062
2019-05-17T09:23:50.224Z,27.5048
2019-05-17T09:23:59.751Z,27.5181
2019-05-17T09:24:10.253Z,27.4620
2019-05-17T09:24:35.339Z,27.5341
2019-05-17T09:24:43.742Z,27.4754
2019-05-17T09:24:52.149Z,27.2377
2019-05-17T09:25:00.562Z,27.1096
2019-05-17T09:25:13.587Z,27.2217
2019-05-17T09:25:23.382Z,27.5341
2019-05-17T09:25:31.802Z,27.6490
2019-05-17T09:25:40.263Z,27.7611
2019-05-17T09:25:50.073Z,27.7905
2019-05-17T09:25:59.522Z,27.8038
2019-05-17T09:26:10.059Z,27.8466
2019-05-17T09:26:19.978Z,27.8306
2019-05-17T09:26:29.412Z,27.7905
2019-05-17T09:26:39.949Z,27.7745
2019-05-17T09:26:49.217Z,27.7318
2019-05-17T09:26:59.857Z,27.6757
2019-05-17T09:39:15.463Z,19.9237
2019-05-17T09:39:23.883Z,19.9691
2019-05-17T09:39:32.360Z,20.0092
2019-05-17T09:39:40.774Z,20.0679
2019-05-17T09:39:49.323Z,20.1080
2019-05-17T09:39:59.700Z,20.1801
2019-05-17T09:40:09.359Z,20.2068
2019-05-17T09:40:20.027Z,20.2655
2019-05-17T09:40:29.270Z,20.2922
2019-05-17T09:40:40.130Z,20.3349
2019-05-17T09:40:50.549Z,20.3616
2019-05-17T09:41:00.014Z,20.9705
2019-05-17T09:41:09.364Z,11.2932
2019-05-17T09:41:19.886Z,6.5961
2019-05-17T09:41:29.319Z,4.8257
2019-05-17T09:41:39.752Z,3.9364
2019-05-17T09:41:50.299Z,3.7388
2019-05-17T09:41:59.597Z,3.8643
2019-05-17T09:42:10.191Z,3.9071
2019-05-17T09:42:20.945Z,3.8643
2019-05-17T09:42:30.088Z,3.8376
2019-05-17T09:42:41.147Z,3.8216
2019-05-17T09:42:50.056Z,3.7255
2019-05-17T09:43:00.523Z,3.5412
2019-05-17T09:43:10.213Z,2.7481
2019-05-17T09:43:20.524Z,2.5078
2019-05-17T09:43:29.647Z,2.4224
2019-05-17T09:43:40.226Z,2.4224
2019-05-17T09:43:49.686Z,2.3930
2019-05-17T09:44:09.600Z,2.3663
2019-05-17T09:44:16.192Z,2.3236
2019-05-17T09:44:25.114Z,2.3102
2019-05-17T09:44:33.621Z,2.2675
2019-05-17T09:44:42.643Z,2.2942
2019-05-17T09:44:51.120Z,2.2942
2019-05-17T09:45:00.390Z,2.3102
2019-05-17T09:45:09.654Z,2.2942
2019-05-17T09:45:20.206Z,2.3102
2019-05-17T09:45:30.606Z,2.2942
2019-05-17T09:45:40.396Z,2.2808
2019-05-17T09:45:50.667Z,1.9017
2019-05-17T09:46:01.689Z,1.6854
2019-05-17T09:46:10.807Z,1.6293
2019-05-17T09:46:19.786Z,1.6426
2019-05-17T09:46:30.283Z,1.6426
2019-05-17T09:46:39.565Z,1.6587
